Adamsville, Utah
Current Conditions -  °F | °C
As of 10:52 PM on Tuesday 21 Oct 2014 (Local Time) from KMLF Reporting Station
Clear Clear  
Wind Chill: 11°   Ceiling: Unl
Heat Index: 11°   Visibility: 10mi
Dew Point: -2°   Wind: 16mph
Humidity: 40%   Direction: 340°NNW
Pressure: 30.05"   Gusts: NA
Location:  38.2672°N, 112.728°W
Report Text: KMLF 220452Z AUTO 34014KT 10SM CLR 11/M02 A3005 RMK AO2 SLP134 T01111022 TSNO
Loading
Personal Weather Stations






























Interactive Weather Map
Tropical Storm Tracking
New forecast layout! Learn more

10-Day Weather Forecast

Advertisements
Track Severe Weather on mobile